Time;durP1;ratioP1;P1;durP2;ratioP2;P2;SDS_P1;SDS_P2;PMS_P1;PMS_P2;Temp;Humidity;BMP_temperature;BMP_pressure;BME280_temperature;BME280_humidity;BME280_pressure;Samples;Min_cycle;Max_cycle;Signal;HPM_P1;HPM_P2
2023/05/16 00:00:18;;;;;;;17.05;14.32;;;12.80;99.90;;;;;;2102150;28;20398;-84
2023/05/16 00:01:19;;;;;;;16.80;15.00;;;12.80;99.90;;;;;;2101662;28;20091;-87
2023/05/16 00:02:20;;;;;;;17.08;15.25;;;12.80;99.90;;;;;;2109287;28;20031;-86
2023/05/16 00:03:20;;;;;;;18.23;16.13;;;12.80;99.90;;;;;;2109315;28;20102;-87
2023/05/16 00:04:22;;;;;;;18.35;15.70;;;12.80;99.90;;;;;;2112212;28;20122;-87
2023/05/16 00:05:23;;;;;;;16.85;15.05;;;12.70;99.90;;;;;;2106251;28;20518;-85
2023/05/16 00:06:24;;;;;;;21.00;15.75;;;12.70;99.90;;;;;;2108623;28;20024;-86
2023/05/16 00:07:25;;;;;;;17.73;15.23;;;12.70;99.90;;;;;;2094897;28;20063;-83
2023/05/16 00:08:25;;;;;;;16.70;14.90;;;12.70;99.90;;;;;;2099190;28;20446;-86
2023/05/16 00:09:26;;;;;;;19.13;14.60;;;12.70;99.90;;;;;;2102727;28;20073;-85
2023/05/16 00:10:26;;;;;;;16.00;14.25;;;12.70;99.90;;;;;;2091499;28;20659;-86
2023/05/16 00:11:28;;;;;;;15.70;14.10;;;12.70;99.90;;;;;;2096079;28;20720;-86
2023/05/16 00:12:28;;;;;;;17.02;14.20;;;12.70;99.90;;;;;;2096559;28;20086;-83
2023/05/16 00:13:29;;;;;;;15.30;13.68;;;12.70;99.90;;;;;;2101702;28;20116;-85
2023/05/16 00:14:30;;;;;;;15.77;14.18;;;12.60;99.90;;;;;;2093300;28;20139;-87
2023/05/16 00:15:30;;;;;;;17.25;14.00;;;12.70;99.90;;;;;;2087993;28;20029;-86
2023/05/16 00:16:31;;;;;;;17.17;14.20;;;12.60;99.90;;;;;;2104414;28;20092;-86
2023/05/16 00:17:32;;;;;;;15.55;13.90;;;12.60;99.90;;;;;;2097551;28;20036;-85
2023/05/16 00:18:36;;;;;;;16.50;14.80;;;12.50;99.90;;;;;;2100857;28;20059;-87
2023/05/16 00:19:41;;;;;;;18.13;16.00;;;12.50;99.90;;;;;;2109743;27;20038;-86
2023/05/16 00:20:41;;;;;;;20.08;16.13;;;12.50;99.90;;;;;;2106404;28;20107;-86
2023/05/16 00:21:43;;;;;;;16.50;14.80;;;12.50;99.90;;;;;;2103215;28;20054;-86
2023/05/16 00:22:45;;;;;;;16.35;14.57;;;12.50;99.90;;;;;;2103272;28;20538;-86
2023/05/16 00:23:45;;;;;;;16.42;14.63;;;12.50;99.90;;;;;;2108339;28;20023;-85
2023/05/16 00:24:46;;;;;;;16.30;14.55;;;12.40;99.90;;;;;;2107139;28;20097;-86
2023/05/16 00:25:47;;;;;;;16.85;14.40;;;12.40;99.90;;;;;;2108631;28;20279;-87
2023/05/16 00:26:48;;;;;;;16.88;14.77;;;12.40;99.90;;;;;;2104523;28;20032;-84
2023/05/16 00:27:48;;;;;;;19.20;16.40;;;12.40;99.90;;;;;;2098938;28;20494;-87
2023/05/16 00:28:49;;;;;;;19.40;15.88;;;12.40;99.90;;;;;;2099599;28;20174;-86
2023/05/16 00:29:49;;;;;;;17.90;15.73;;;12.40;99.90;;;;;;2110175;28;20213;-84
2023/05/16 00:30:51;;;;;;;16.27;14.40;;;12.40;99.90;;;;;;2108386;28;20016;-85
2023/05/16 00:31:52;;;;;;;18.92;14.45;;;12.40;99.90;;;;;;2099066;28;20143;-85
2023/05/16 00:32:54;;;;;;;16.27;14.57;;;12.30;99.90;;;;;;2096600;28;20020;-85
2023/05/16 00:33:55;;;;;;;16.15;14.55;;;12.30;99.90;;;;;;2095352;28;20025;-84
2023/05/16 00:34:55;;;;;;;15.77;13.68;;;12.30;99.90;;;;;;2092332;28;20471;-86
2023/05/16 00:35:56;;;;;;;15.70;13.95;;;12.30;99.90;;;;;;2092602;28;20032;-85
2023/05/16 00:36:56;;;;;;;17.67;15.05;;;12.30;99.90;;;;;;2109410;28;20444;-86
2023/05/16 00:37:57;;;;;;;17.98;15.80;;;12.30;99.90;;;;;;2109310;28;20032;-85
2023/05/16 00:38:57;;;;;;;19.83;16.67;;;12.30;99.90;;;;;;2100677;28;20032;-86
2023/05/16 00:39:58;;;;;;;18.58;16.25;;;12.30;99.90;;;;;;2089694;28;20028;-85
2023/05/16 00:40:59;;;;;;;20.00;15.77;;;12.30;99.90;;;;;;2100760;28;20070;-86
2023/05/16 00:42:00;;;;;;;21.13;16.48;;;12.30;99.90;;;;;;2092158;28;20108;-86
2023/05/16 00:43:00;;;;;;;19.38;16.75;;;12.30;99.90;;;;;;2100210;28;20073;-85
2023/05/16 00:44:01;;;;;;;19.25;17.05;;;12.30;99.90;;;;;;2094424;28;20047;-86
2023/05/16 00:45:02;;;;;;;21.67;17.75;;;12.30;99.90;;;;;;2092260;28;20036;-86
2023/05/16 00:46:03;;;;;;;21.85;17.70;;;12.30;99.90;;;;;;2095319;28;20368;-86
2023/05/16 00:47:04;;;;;;;19.98;17.17;;;12.30;99.90;;;;;;2110381;28;20080;-86
2023/05/16 00:48:04;;;;;;;19.58;17.08;;;12.30;99.90;;;;;;2097132;28;20024;-85
2023/05/16 00:49:05;;;;;;;19.80;16.85;;;12.30;99.90;;;;;;2095354;28;20595;-87
2023/05/16 00:50:06;;;;;;;20.95;17.30;;;12.30;99.90;;;;;;2114417;27;20027;-85
2023/05/16 00:51:08;;;;;;;21.08;17.23;;;12.30;99.90;;;;;;2105164;28;20483;-82
2023/05/16 00:52:08;;;;;;;19.17;16.67;;;12.30;99.90;;;;;;2110729;28;20159;-86
2023/05/16 00:53:09;;;;;;;18.60;16.48;;;12.30;99.90;;;;;;2108568;28;20106;-86
2023/05/16 00:54:11;;;;;;;18.35;15.98;;;12.30;99.90;;;;;;2105905;28;20158;-88
2023/05/16 00:55:12;;;;;;;18.08;15.98;;;12.30;99.90;;;;;;2096379;28;20036;-86
2023/05/16 00:56:16;;;;;;;20.30;17.65;;;12.30;99.90;;;;;;2099076;28;20028;-87
2023/05/16 00:57:17;;;;;;;19.45;16.90;;;12.30;99.90;;;;;;2107738;28;20036;-85
2023/05/16 00:58:20;;;;;;;21.70;17.05;;;12.30;99.90;;;;;;2105670;28;20023;-87
2023/05/16 00:59:21;;;;;;;19.52;17.42;;;12.30;99.90;;;;;;2097143;28;20028;-85
2023/05/16 01:00:22;;;;;;;19.77;17.67;;;12.30;99.90;;;;;;2093481;28;20071;-85
2023/05/16 01:01:26;;;;;;;19.83;17.52;;;12.30;99.90;;;;;;2083768;28;20097;-87
2023/05/16 01:02:28;;;;;;;19.83;16.55;;;12.40;99.90;;;;;;2088388;28;20040;-86
2023/05/16 01:03:29;;;;;;;18.88;16.48;;;12.30;99.90;;;;;;2095211;28;20032;-86
2023/05/16 01:04:31;;;;;;;20.83;16.67;;;12.30;99.90;;;;;;2101591;28;20509;-82
2023/05/16 01:05:32;;;;;;;21.13;17.35;;;12.30;99.90;;;;;;2102140;28;20028;-85
2023/05/16 01:06:33;;;;;;;20.58;16.98;;;12.30;99.90;;;;;;2098333;28;20036;-87
2023/05/16 01:07:35;;;;;;;18.35;15.93;;;12.30;99.90;;;;;;2102651;28;20248;-86
2023/05/16 01:08:35;;;;;;;17.27;15.43;;;12.30;99.90;;;;;;2088063;28;20461;-85
2023/05/16 01:09:37;;;;;;;17.35;15.05;;;12.30;99.90;;;;;;2089411;28;20040;-86
2023/05/16 01:11:24;;;;;;;15.68;13.88;;;12.30;99.90;;;;;;2100114;28;20494;-87
2023/05/16 01:12:47;;;;;;;21.02;17.45;;;12.30;99.90;;;;;;2105959;28;20482;-85
2023/05/16 01:14:01;;;;;;;21.52;17.38;;;12.20;99.90;;;;;;2088500;28;20426;-84
2023/05/16 01:15:21;;;;;;;20.88;15.55;;;12.20;99.90;;;;;;2087076;28;20060;-87
2023/05/16 01:16:30;;;;;;;19.23;16.52;;;12.20;99.90;;;;;;2104719;28;20031;-84
2023/05/16 01:17:51;;;;;;;19.27;16.58;;;12.20;99.90;;;;;;2098261;28;20086;-86
2023/05/16 01:19:08;;;;;;;19.20;15.55;;;12.20;99.90;;;;;;2096971;28;20024;-87
2023/05/16 01:20:31;;;;;;;18.45;16.45;;;12.20;99.90;;;;;;2102466;28;20024;-86
2023/05/16 01:22:04;;;;;;;19.20;17.17;;;12.10;99.90;;;;;;2106337;28;20051;-85
2023/05/16 01:23:32;;;;;;;20.83;16.88;;;12.10;99.90;;;;;;2099143;28;20016;-86
2023/05/16 01:24:47;;;;;;;20.80;17.17;;;12.20;99.90;;;;;;2101478;28;20023;-83
2023/05/16 01:25:56;;;;;;;19.55;17.25;;;12.10;99.90;;;;;;2101081;28;20028;-84
2023/05/16 01:26:58;;;;;;;23.42;18.23;;;12.10;99.90;;;;;;2092043;28;20040;-85
2023/05/16 01:28:02;;;;;;;21.30;17.65;;;12.20;99.90;;;;;;2098548;28;20028;-86
2023/05/16 01:29:03;;;;;;;21.10;16.95;;;12.20;99.90;;;;;;2097703;28;20035;-84
2023/05/16 01:30:15;;;;;;;21.25;17.02;;;12.20;99.90;;;;;;2114087;27;20033;-86
2023/05/16 01:31:16;;;;;;;22.20;17.38;;;12.20;99.90;;;;;;2109037;28;20177;-85
2023/05/16 01:32:16;;;;;;;21.17;17.23;;;12.20;99.90;;;;;;2105245;28;20670;-86
2023/05/16 01:33:17;;;;;;;21.13;17.85;;;12.10;99.90;;;;;;2109095;28;20039;-83
2023/05/16 01:34:18;;;;;;;22.88;18.08;;;12.10;99.90;;;;;;2104072;28;20082;-86
2023/05/16 01:35:19;;;;;;;20.58;18.38;;;12.10;99.90;;;;;;2102355;28;20091;-86
2023/05/16 01:36:58;;;;;;;21.42;17.85;;;12.10;99.90;;;;;;2099890;28;20114;-89
2023/05/16 01:38:21;;;;;;;23.05;17.80;;;12.10;99.90;;;;;;2091444;28;20036;-87
2023/05/16 01:39:56;;;;;;;23.80;18.27;;;12.20;99.90;;;;;;2091964;28;20727;-87
2023/05/16 01:41:23;;;;;;;21.92;17.92;;;12.20;99.90;;;;;;2099567;28;20534;-86
2023/05/16 01:42:27;;;;;;;22.90;18.45;;;12.20;99.90;;;;;;2098393;28;20047;-86
2023/05/16 01:43:44;;;;;;;23.27;18.98;;;12.10;99.90;;;;;;2095813;28;20350;-87
2023/05/16 01:44:58;;;;;;;21.10;18.17;;;12.20;99.90;;;;;;2094985;28;20526;-87
2023/05/16 01:46:08;;;;;;;19.95;17.50;;;12.10;99.90;;;;;;2098792;28;20042;-86
2023/05/16 01:47:12;;;;;;;23.50;17.92;;;12.10;99.90;;;;;;2106135;28;20019;-86
2023/05/16 01:48:18;;;;;;;20.00;16.80;;;12.10;99.90;;;;;;2105949;28;20077;-84
2023/05/16 01:49:28;;;;;;;19.52;16.63;;;12.10;99.90;;;;;;2104989;28;20024;-86
2023/05/16 01:50:32;;;;;;;16.80;15.05;;;12.10;99.90;;;;;;2101843;28;20041;-86
2023/05/16 01:51:38;;;;;;;20.92;18.08;;;12.10;99.90;;;;;;2095154;28;20060;-86
2023/05/16 01:52:58;;;;;;;19.63;17.48;;;12.10;99.90;;;;;;2100286;28;20525;-85
2023/05/16 01:54:08;;;;;;;18.10;16.15;;;12.10;99.90;;;;;;2092564;28;20102;-85
2023/05/16 01:55:22;;;;;;;24.67;17.45;;;12.10;99.90;;;;;;2099122;28;20066;-85
2023/05/16 01:56:24;;;;;;;21.05;16.70;;;12.00;99.90;;;;;;2105896;28;20036;-85
2023/05/16 01:57:27;;;;;;;18.92;16.52;;;12.00;99.90;;;;;;2101572;28;20546;-85
2023/05/16 01:58:32;;;;;;;17.27;15.25;;;12.00;99.90;;;;;;2091289;28;20071;-85
2023/05/16 01:59:33;;;;;;;18.45;15.40;;;12.00;99.90;;;;;;2095697;28;20084;-85
2023/05/16 02:00:34;;;;;;;18.17;16.27;;;11.90;99.90;;;;;;2094763;28;20551;-85
2023/05/16 02:01:34;;;;;;;17.65;15.85;;;11.90;99.90;;;;;;2091607;28;20033;-84
2023/05/16 02:02:35;;;;;;;17.40;15.60;;;11.90;99.90;;;;;;2101964;28;20028;-85
2023/05/16 02:03:36;;;;;;;17.58;15.70;;;11.80;99.90;;;;;;2091523;28;20052;-86
2023/05/16 02:04:37;;;;;;;17.42;15.63;;;11.80;99.90;;;;;;2083056;28;20583;-85
2023/05/16 02:05:37;;;;;;;19.38;16.90;;;11.70;99.90;;;;;;2091260;28;20051;-85
2023/05/16 02:06:38;;;;;;;20.08;16.88;;;11.70;99.90;;;;;;2099534;28;20036;-85
2023/05/16 02:07:40;;;;;;;19.30;17.00;;;11.70;99.90;;;;;;2096566;28;20024;-85
2023/05/16 02:08:40;;;;;;;19.85;16.48;;;11.70;99.90;;;;;;2104204;28;20028;-85
2023/05/16 02:09:41;;;;;;;18.70;16.35;;;11.70;99.90;;;;;;2099740;28;20020;-85
2023/05/16 02:10:42;;;;;;;18.67;16.52;;;11.70;99.90;;;;;;2104171;28;20103;-85
2023/05/16 02:11:42;;;;;;;20.17;16.88;;;11.70;99.90;;;;;;2107117;28;20032;-85
2023/05/16 02:12:43;;;;;;;18.88;16.88;;;11.60;99.90;;;;;;2096827;28;20064;-83
2023/05/16 02:13:44;;;;;;;18.73;16.63;;;11.60;99.90;;;;;;2080864;28;20033;-84
2023/05/16 02:14:45;;;;;;;20.20;17.58;;;11.60;99.90;;;;;;2087785;28;20542;-85
2023/05/16 02:15:45;;;;;;;20.20;17.00;;;11.60;99.90;;;;;;2098191;28;20016;-83
2023/05/16 02:16:47;;;;;;;18.10;16.20;;;11.60;99.90;;;;;;2099730;28;20028;-84
2023/05/16 02:17:48;;;;;;;18.92;16.92;;;11.60;99.90;;;;;;2095122;28;20028;-84
2023/05/16 02:18:49;;;;;;;21.30;17.00;;;11.50;99.90;;;;;;2091249;28;20101;-86
2023/05/16 02:19:50;;;;;;;21.52;17.15;;;11.50;99.90;;;;;;2083480;28;20483;-85
2023/05/16 02:20:51;;;;;;;19.00;17.00;;;11.50;99.90;;;;;;2103285;28;20518;-86
2023/05/16 02:21:51;;;;;;;25.38;20.27;;;11.50;99.90;;;;;;2096207;28;20028;-87
2023/05/16 02:22:52;;;;;;;24.55;19.77;;;11.50;99.90;;;;;;2095819;28;20057;-88
2023/05/16 02:23:52;;;;;;;21.65;19.35;;;11.60;99.90;;;;;;2105268;28;20027;-87
2023/05/16 02:24:53;;;;;;;23.65;19.20;;;11.50;99.90;;;;;;2106150;28;20035;-87
2023/05/16 02:25:53;;;;;;;22.85;19.85;;;11.60;99.90;;;;;;2094629;28;20526;-84
2023/05/16 02:26:56;;;;;;;20.98;18.77;;;11.60;99.90;;;;;;2104879;28;20027;-86
2023/05/16 02:27:57;;;;;;;21.10;18.73;;;11.60;99.90;;;;;;2095072;28;20545;-85
2023/05/16 02:28:57;;;;;;;20.45;18.13;;;11.70;99.90;;;;;;2104260;28;20031;-85
2023/05/16 02:29:58;;;;;;;23.58;19.65;;;11.70;99.90;;;;;;2110681;28;20050;-85
2023/05/16 02:30:59;;;;;;;23.50;18.48;;;11.70;99.90;;;;;;2106737;28;20437;-84
2023/05/16 02:32:00;;;;;;;20.23;18.05;;;11.70;99.90;;;;;;2105808;28;20024;-84
2023/05/16 02:33:01;;;;;;;20.10;18.00;;;11.80;99.90;;;;;;2106806;28;20059;-85
2023/05/16 02:34:02;;;;;;;19.42;17.33;;;11.80;99.90;;;;;;2106874;28;20046;-86
2023/05/16 02:35:03;;;;;;;18.90;16.30;;;11.80;99.90;;;;;;2100250;28;20510;-85
2023/05/16 02:36:04;;;;;;;19.85;16.38;;;11.80;99.90;;;;;;2089769;28;20029;-84
2023/05/16 02:37:05;;;;;;;19.70;17.30;;;11.80;99.90;;;;;;2098153;28;20040;-84
2023/05/16 02:38:05;;;;;;;19.13;17.15;;;11.80;99.90;;;;;;2099722;28;20067;-82
2023/05/16 02:39:08;;;;;;;19.52;17.52;;;11.80;99.90;;;;;;2090518;28;20031;-83
2023/05/16 02:40:09;;;;;;;19.73;17.15;;;11.80;99.90;;;;;;2101729;28;20020;-83
2023/05/16 02:41:10;;;;;;;19.48;17.38;;;11.80;99.90;;;;;;2109868;28;20022;-82
2023/05/16 02:42:11;;;;;;;20.08;17.38;;;11.80;99.90;;;;;;2110857;28;20027;-85
2023/05/16 02:43:12;;;;;;;18.48;16.60;;;11.80;99.90;;;;;;2099230;28;20023;-84
2023/05/16 02:44:13;;;;;;;18.65;16.75;;;11.90;99.90;;;;;;2093976;28;20110;-84
2023/05/16 02:45:15;;;;;;;20.10;17.90;;;11.90;99.90;;;;;;2092557;28;20257;-84
2023/05/16 02:46:20;;;;;;;19.85;17.15;;;11.90;99.90;;;;;;2105150;28;20032;-82
2023/05/16 02:47:21;;;;;;;19.55;17.25;;;11.90;99.90;;;;;;2108364;28;20042;-82
2023/05/16 02:48:21;;;;;;;18.73;16.65;;;11.90;99.90;;;;;;2099249;28;20039;-84
2023/05/16 02:49:22;;;;;;;20.48;17.90;;;11.90;99.90;;;;;;2097603;28;20540;-84
2023/05/16 02:50:22;;;;;;;21.55;18.90;;;12.00;99.90;;;;;;2095743;28;20622;-85
2023/05/16 02:51:25;;;;;;;20.13;17.95;;;12.00;99.90;;;;;;2095968;28;20128;-83
2023/05/16 02:52:26;;;;;;;21.98;18.83;;;12.00;99.90;;;;;;2089987;28;20145;-85
2023/05/16 02:53:26;;;;;;;25.15;19.50;;;12.00;99.90;;;;;;2097483;28;20093;-83
2023/05/16 02:54:27;;;;;;;20.55;18.35;;;12.00;99.90;;;;;;2091267;28;20020;-83
2023/05/16 02:55:28;;;;;;;19.88;17.85;;;12.00;99.90;;;;;;2091011;28;20964;-84
2023/05/16 02:56:28;;;;;;;21.23;18.15;;;12.10;99.90;;;;;;2097192;28;20036;-84
2023/05/16 02:57:29;;;;;;;22.63;17.95;;;12.10;99.90;;;;;;2087294;28;20037;-84
2023/05/16 02:58:30;;;;;;;20.00;17.65;;;12.10;99.90;;;;;;2098101;28;20086;-84
2023/05/16 02:59:31;;;;;;;20.63;18.20;;;12.10;99.90;;;;;;2100168;28;20020;-85
2023/05/16 03:00:31;;;;;;;21.13;18.60;;;12.10;99.90;;;;;;2090858;28;20056;-86
2023/05/16 03:01:33;;;;;;;25.73;20.35;;;12.20;99.90;;;;;;2097171;28;20051;-84
2023/05/16 03:02:33;;;;;;;23.73;19.75;;;12.20;99.90;;;;;;2085182;28;20021;-85
2023/05/16 03:03:35;;;;;;;26.10;20.40;;;12.20;99.90;;;;;;2075790;28;20552;-85
2023/05/16 03:04:36;;;;;;;22.55;18.23;;;12.20;99.90;;;;;;2096142;28;20089;-84
2023/05/16 03:05:37;;;;;;;21.90;19.05;;;12.20;99.90;;;;;;2100429;28;20082;-83
2023/05/16 03:06:37;;;;;;;23.80;19.00;;;12.20;99.90;;;;;;2095204;28;20060;-83
2023/05/16 03:07:38;;;;;;;19.67;17.60;;;12.20;99.90;;;;;;2095497;28;20607;-85
2023/05/16 03:08:39;;;;;;;19.63;17.35;;;12.20;99.90;;;;;;2100726;28;20502;-85
2023/05/16 03:09:39;;;;;;;21.80;18.85;;;12.20;99.90;;;;;;2086789;28;20568;-83
2023/05/16 03:10:41;;;;;;;19.70;17.60;;;12.20;99.90;;;;;;2101029;28;20119;-85
2023/05/16 03:11:41;;;;;;;21.48;17.83;;;12.20;99.90;;;;;;2099470;28;20028;-84
2023/05/16 03:12:42;;;;;;;19.83;17.65;;;12.20;99.90;;;;;;2092453;28;20028;-84
2023/05/16 03:13:43;;;;;;;22.13;19.23;;;12.20;99.90;;;;;;2094427;28;20044;-84
2023/05/16 03:14:44;;;;;;;21.35;18.63;;;12.20;99.90;;;;;;2099835;28;20309;-84
2023/05/16 03:15:45;;;;;;;21.48;18.23;;;12.20;99.90;;;;;;2101143;28;20342;-85
2023/05/16 03:16:46;;;;;;;19.02;17.00;;;12.20;99.90;;;;;;2092751;28;20055;-86
2023/05/16 03:17:46;;;;;;;21.80;17.23;;;12.20;99.90;;;;;;2096851;28;20505;-84
2023/05/16 03:18:47;;;;;;;20.05;17.83;;;12.20;99.90;;;;;;2104623;28;20179;-86
2023/05/16 03:19:48;;;;;;;19.65;17.55;;;12.30;99.90;;;;;;2096953;28;20047;-84
2023/05/16 03:20:48;;;;;;;19.95;17.85;;;12.30;99.90;;;;;;2094922;28;20047;-84
2023/05/16 03:21:49;;;;;;;20.08;17.40;;;12.30;99.90;;;;;;2099584;28;20095;-85
2023/05/16 03:22:50;;;;;;;21.98;18.33;;;12.30;99.90;;;;;;2099425;28;20036;-85
2023/05/16 03:23:50;;;;;;;22.13;19.38;;;12.30;99.90;;;;;;2095964;28;20028;-87
2023/05/16 03:24:51;;;;;;;24.23;20.50;;;12.30;99.90;;;;;;2099353;28;20035;-85
2023/05/16 03:25:51;;;;;;;24.33;20.00;;;12.30;99.90;;;;;;2102268;28;20574;-83
2023/05/16 03:26:54;;;;;;;24.98;20.33;;;12.30;99.90;;;;;;2093614;28;20063;-86
2023/05/16 03:27:55;;;;;;;24.55;20.58;;;12.30;99.90;;;;;;2099559;28;20055;-86
2023/05/16 03:28:56;;;;;;;27.10;21.25;;;12.30;99.90;;;;;;2105356;28;20078;-87
2023/05/16 03:29:56;;;;;;;25.83;22.02;;;12.40;99.90;;;;;;2097187;28;20494;-85
2023/05/16 03:30:57;;;;;;;23.77;20.30;;;12.40;99.90;;;;;;2099086;28;20499;-85
2023/05/16 03:31:58;;;;;;;25.27;20.80;;;12.40;99.90;;;;;;2092232;28;20039;-85
2023/05/16 03:32:59;;;;;;;29.40;23.02;;;12.40;99.90;;;;;;2095560;28;20058;-86
2023/05/16 03:33:59;;;;;;;26.25;21.60;;;12.40;99.90;;;;;;2090473;28;20099;-83
2023/05/16 03:35:00;;;;;;;24.48;21.20;;;12.40;99.90;;;;;;2097749;28;20128;-85
2023/05/16 03:36:01;;;;;;;25.02;20.08;;;12.50;99.90;;;;;;2108264;28;20034;-86
2023/05/16 03:37:01;;;;;;;25.80;20.33;;;12.50;99.90;;;;;;2108182;28;20518;-86
2023/05/16 03:38:02;;;;;;;25.38;21.65;;;12.50;99.90;;;;;;2108123;28;20102;-86
2023/05/16 03:39:03;;;;;;;27.42;21.95;;;12.50;99.90;;;;;;2107226;27;20516;-84
2023/05/16 03:40:05;;;;;;;27.33;21.45;;;12.50;99.90;;;;;;2105965;28;20035;-85
2023/05/16 03:41:05;;;;;;;26.05;21.17;;;12.50;99.90;;;;;;2099115;28;20028;-86
2023/05/16 03:42:06;;;;;;;26.25;21.77;;;12.50;99.90;;;;;;2099176;28;20068;-86
2023/05/16 03:43:07;;;;;;;25.67;21.85;;;12.50;99.90;;;;;;2099488;28;20031;-87
2023/05/16 03:44:07;;;;;;;24.77;20.30;;;12.50;99.90;;;;;;2100039;28;20035;-85
2023/05/16 03:45:08;;;;;;;26.42;22.25;;;12.50;99.90;;;;;;2110570;28;20494;-85
2023/05/16 03:46:09;;;;;;;23.08;19.75;;;12.50;99.90;;;;;;2106290;28;20374;-88
2023/05/16 03:47:09;;;;;;;25.10;21.27;;;12.60;99.90;;;;;;2105932;28;20088;-88
2023/05/16 03:48:10;;;;;;;23.85;21.13;;;12.50;99.90;;;;;;2110172;28;20031;-86
2023/05/16 03:49:10;;;;;;;24.00;21.23;;;12.60;99.90;;;;;;2094108;28;20470;-87
2023/05/16 03:50:11;;;;;;;24.30;20.55;;;12.50;99.90;;;;;;2099107;28;20020;-87
2023/05/16 03:51:12;;;;;;;24.23;19.85;;;12.60;99.90;;;;;;2103374;28;20020;-88
2023/05/16 03:52:13;;;;;;;27.27;19.92;;;12.60;99.90;;;;;;2104153;28;20036;-87
2023/05/16 03:53:14;;;;;;;22.55;19.55;;;12.60;99.90;;;;;;2110443;28;20038;-85
2023/05/16 03:54:15;;;;;;;27.33;21.00;;;12.70;99.90;;;;;;2109520;28;20086;-84
2023/05/16 03:55:16;;;;;;;32.42;19.90;;;12.70;99.90;;;;;;2108649;28;20103;-84
2023/05/16 03:56:16;;;;;;;23.08;19.30;;;12.70;99.90;;;;;;2106092;28;20658;-82
2023/05/16 03:57:17;;;;;;;21.38;19.05;;;12.70;99.90;;;;;;2105759;28;20035;-86
2023/05/16 03:58:17;;;;;;;24.67;20.75;;;12.80;99.90;;;;;;2105385;28;20070;-86
2023/05/16 03:59:18;;;;;;;26.20;20.65;;;12.80;99.90;;;;;;2109895;28;20441;-86
2023/05/16 04:00:18;;;;;;;21.35;18.90;;;12.80;99.90;;;;;;2103100;28;20054;-88
2023/05/16 04:01:19;;;;;;;22.17;19.15;;;12.80;99.90;;;;;;2103782;28;20032;-87
2023/05/16 04:02:20;;;;;;;23.30;20.05;;;12.80;99.90;;;;;;2103906;28;20058;-85
2023/05/16 04:03:27;;;;;;;28.50;21.63;;;12.80;99.90;;;;;;2106617;28;20447;-85
2023/05/16 04:04:27;;;;;;;23.75;21.20;;;12.90;99.90;;;;;;2091161;28;20025;-85
2023/05/16 04:05:28;;;;;;;26.15;21.45;;;12.80;99.90;;;;;;2085896;28;20411;-84
2023/05/16 04:06:29;;;;;;;26.40;21.10;;;12.80;99.90;;;;;;2108584;28;20447;-85
2023/05/16 04:07:30;;;;;;;23.33;20.80;;;12.80;99.90;;;;;;2109447;28;20032;-85
2023/05/16 04:08:30;;;;;;;27.35;21.23;;;12.80;99.90;;;;;;2098634;28;20460;-85
2023/05/16 04:09:31;;;;;;;25.45;21.35;;;12.90;99.90;;;;;;2094169;28;20047;-86
2023/05/16 04:10:32;;;;;;;25.40;19.77;;;12.90;99.90;;;;;;2108208;28;20031;-86
2023/05/16 04:11:33;;;;;;;24.92;19.90;;;12.90;99.90;;;;;;2105411;28;20047;-85
2023/05/16 04:12:33;;;;;;;21.23;18.92;;;12.90;99.90;;;;;;2105742;28;20463;-86
2023/05/16 04:13:34;;;;;;;27.95;21.48;;;13.00;99.90;;;;;;2098622;28;20025;-86
2023/05/16 04:14:34;;;;;;;27.65;22.13;;;13.00;99.90;;;;;;2091501;28;20060;-85
2023/05/16 04:15:35;;;;;;;23.80;20.45;;;13.00;99.90;;;;;;2090422;28;20492;-87
2023/05/16 04:16:35;;;;;;;27.23;21.83;;;12.90;99.90;;;;;;2097859;28;20016;-86
2023/05/16 04:17:36;;;;;;;27.70;21.27;;;13.00;99.90;;;;;;2108073;28;20027;-86
2023/05/16 04:18:37;;;;;;;29.15;22.10;;;12.90;99.90;;;;;;2108874;28;20027;-88
2023/05/16 04:19:38;;;;;;;25.77;21.27;;;12.90;99.90;;;;;;2108720;28;20506;-86
2023/05/16 04:20:38;;;;;;;24.17;20.40;;;12.90;99.90;;;;;;2108686;28;20055;-86
2023/05/16 04:21:39;;;;;;;25.00;21.65;;;12.90;99.90;;;;;;2101273;28;20103;-86
2023/05/16 04:22:40;;;;;;;24.15;20.60;;;12.90;99.90;;;;;;2094910;28;20040;-87
2023/05/16 04:23:41;;;;;;;25.02;21.38;;;12.80;99.90;;;;;;2098210;28;20031;-85
2023/05/16 04:24:41;;;;;;;23.83;20.95;;;12.80;99.90;;;;;;2097288;28;20426;-83
2023/05/16 04:25:42;;;;;;;24.15;20.67;;;12.90;99.90;;;;;;2108528;28;20024;-83
2023/05/16 04:26:43;;;;;;;24.63;22.02;;;12.90;99.90;;;;;;2108108;28;20039;-85
2023/05/16 04:27:44;;;;;;;28.42;23.17;;;12.90;99.90;;;;;;2108110;28;20058;-85
2023/05/16 04:28:45;;;;;;;25.92;21.42;;;12.80;99.90;;;;;;2105409;28;20031;-84
2023/05/16 04:29:45;;;;;;;28.98;21.85;;;12.80;99.90;;;;;;2110043;28;20249;-84
2023/05/16 04:30:46;;;;;;;24.70;20.70;;;12.80;99.90;;;;;;2107833;28;20028;-84
2023/05/16 04:31:47;;;;;;;24.23;21.60;;;12.80;99.90;;;;;;2106128;28;20444;-86
2023/05/16 04:32:47;;;;;;;23.60;21.00;;;12.80;99.90;;;;;;2095623;28;20081;-90
2023/05/16 04:33:48;;;;;;;25.23;21.25;;;12.80;99.90;;;;;;2089658;28;20025;-89
2023/05/16 04:34:52;;;;;;;28.02;21.90;;;12.80;99.90;;;;;;2102083;28;20032;-87
2023/05/16 04:35:53;;;;;;;26.70;21.45;;;12.80;99.90;;;;;;2109973;28;20038;-90
2023/05/16 04:36:54;;;;;;;25.00;21.17;;;12.70;99.90;;;;;;2111435;28;20032;-88
2023/05/16 04:37:55;;;;;;;28.75;21.88;;;12.70;99.90;;;;;;2100027;28;20063;-87
2023/05/16 04:38:56;;;;;;;25.98;21.50;;;12.70;99.90;;;;;;2085552;28;20047;-87
2023/05/16 04:39:57;;;;;;;27.50;22.15;;;12.70;99.90;;;;;;2093752;28;20063;-90
2023/05/16 04:40:58;;;;;;;29.10;22.77;;;12.60;99.90;;;;;;2096599;28;20483;-89
2023/05/16 04:41:59;;;;;;;26.60;22.23;;;12.60;99.90;;;;;;2091899;28;20436;-85
2023/05/16 04:42:59;;;;;;;27.17;20.27;;;12.70;99.90;;;;;;2101295;28;20032;-89
2023/05/16 04:44:03;;;;;;;23.13;19.50;;;12.70;99.90;;;;;;2110243;28;20031;-86
2023/05/16 04:45:05;;;;;;;29.20;22.33;;;12.80;99.90;;;;;;2113227;28;20359;-89
2023/05/16 04:46:09;;;;;;;27.85;22.63;;;12.80;99.90;;;;;;2109634;28;20035;-86
2023/05/16 04:47:09;;;;;;;24.10;20.52;;;12.80;99.90;;;;;;2109569;28;20066;-86
2023/05/16 04:48:11;;;;;;;26.00;22.02;;;12.80;99.90;;;;;;2103864;28;20027;-85
2023/05/16 04:49:11;;;;;;;27.40;21.95;;;12.70;99.90;;;;;;2094573;28;20020;-87
2023/05/16 04:50:12;;;;;;;27.85;22.45;;;12.70;99.90;;;;;;2106792;28;20038;-86
2023/05/16 04:51:13;;;;;;;30.45;22.85;;;12.70;99.90;;;;;;2103301;28;20019;-86
2023/05/16 04:52:13;;;;;;;28.73;22.17;;;12.70;99.90;;;;;;2091184;28;20495;-84
2023/05/16 04:53:14;;;;;;;30.25;21.70;;;12.70;99.90;;;;;;2094919;28;20159;-81
2023/05/16 04:54:15;;;;;;;25.67;22.63;;;12.70;99.90;;;;;;2108810;28;20039;-80
2023/05/16 04:55:15;;;;;;;28.10;21.85;;;12.60;99.90;;;;;;2104957;28;20032;-85
2023/05/16 04:56:16;;;;;;;26.17;22.15;;;12.60;99.90;;;;;;2107931;28;20055;-85
2023/05/16 04:57:17;;;;;;;27.45;22.35;;;12.70;99.90;;;;;;2102609;28;20026;-86
2023/05/16 04:58:17;;;;;;;26.75;22.50;;;12.70;99.90;;;;;;2103093;28;20567;-84
2023/05/16 04:59:18;;;;;;;26.40;22.73;;;12.60;99.90;;;;;;2096415;28;20056;-83
2023/05/16 05:00:19;;;;;;;29.27;23.48;;;12.60;99.90;;;;;;2106765;28;20042;-87
2023/05/16 05:01:20;;;;;;;28.33;23.23;;;12.60;99.90;;;;;;2102930;28;20036;-88
2023/05/16 05:02:20;;;;;;;27.70;22.63;;;12.70;99.90;;;;;;2108058;28;20058;-80
2023/05/16 05:03:21;;;;;;;27.00;22.98;;;12.70;99.90;;;;;;2104871;28;20542;-83
2023/05/16 05:04:21;;;;;;;26.55;22.67;;;12.70;99.90;;;;;;2109789;28;20486;-82
2023/05/16 05:05:22;;;;;;;29.90;23.08;;;12.70;99.90;;;;;;2109479;28;20031;-82
2023/05/16 05:06:23;;;;;;;30.63;23.17;;;12.70;99.90;;;;;;2107888;28;20040;-84
2023/05/16 05:07:26;;;;;;;27.27;22.25;;;12.70;99.90;;;;;;2101160;28;20028;-87
2023/05/16 05:08:27;;;;;;;27.70;24.00;;;12.70;99.90;;;;;;2098890;28;20551;-87
2023/05/16 05:09:28;;;;;;;30.25;24.95;;;12.70;99.90;;;;;;2099935;28;20125;-83
2023/05/16 05:10:29;;;;;;;32.17;24.75;;;12.70;99.90;;;;;;2102686;28;20024;-83
2023/05/16 05:11:31;;;;;;;31.65;25.33;;;12.70;99.90;;;;;;2109268;28;20019;-84
2023/05/16 05:12:32;;;;;;;27.95;24.35;;;12.70;99.90;;;;;;2105147;28;20027;-79
2023/05/16 05:13:33;;;;;;;32.45;23.92;;;12.70;99.90;;;;;;2107301;28;20039;-77
2023/05/16 05:14:33;;;;;;;30.20;22.88;;;12.70;99.90;;;;;;2098366;28;20032;-78
2023/05/16 05:15:34;;;;;;;31.13;24.42;;;12.70;99.90;;;;;;2089480;28;20051;-78
2023/05/16 05:16:36;;;;;;;31.48;25.13;;;12.70;99.90;;;;;;2098046;28;20111;-77
2023/05/16 05:17:39;;;;;;;27.70;23.55;;;12.80;99.90;;;;;;2108796;28;20053;-77